createdAt,value
2022-11-08T00:01:18.675Z,2.60
2022-11-08T00:03:48.444Z,1.70
2022-11-08T00:06:30.672Z,1.73
2022-11-08T00:09:12.887Z,2.10
2022-11-08T00:11:57.682Z,2.00
2022-11-08T00:14:27.495Z,1.77
2022-11-08T00:16:57.265Z,1.90
2022-11-08T00:19:27.127Z,1.73
2022-11-08T00:21:56.852Z,2.17
2022-11-08T00:24:26.584Z,2.17
2022-11-08T00:26:59.023Z,2.03
2022-11-08T00:29:28.870Z,1.73
2022-11-08T00:31:58.651Z,1.93
2022-11-08T00:34:28.470Z,2.77
2022-11-08T00:36:58.328Z,2.43
2022-11-08T00:39:28.261Z,2.50
2022-11-08T00:42:01.068Z,2.20
2022-11-08T00:44:31.106Z,2.87
2022-11-08T00:47:00.955Z,2.20
2022-11-08T00:49:30.937Z,2.00
2022-11-08T00:52:00.687Z,2.30
2022-11-08T00:54:30.495Z,2.00
2022-11-08T00:57:02.916Z,2.50
2022-11-08T00:59:32.732Z,2.40
2022-11-08T01:02:02.670Z,2.10
2022-11-08T01:04:32.581Z,2.20
2022-11-08T01:07:02.358Z,1.97
2022-11-08T01:09:32.187Z,2.00
2022-11-08T01:12:04.542Z,2.27
2022-11-08T01:14:34.398Z,2.23
2022-11-08T01:17:04.121Z,2.40
2022-11-08T01:19:33.879Z,1.70
2022-11-08T01:22:03.647Z,2.20
2022-11-08T01:24:33.437Z,1.93
2022-11-08T01:27:05.833Z,2.13
2022-11-08T01:29:36.331Z,1.97
2022-11-08T01:32:06.128Z,2.37
2022-11-08T01:34:36.173Z,2.20
2022-11-08T01:37:05.956Z,2.00
2022-11-08T01:39:35.918Z,2.37
2022-11-08T01:42:08.639Z,2.83
2022-11-08T01:44:59.934Z,2.50
2022-11-08T01:47:29.710Z,2.47
2022-11-08T01:50:02.423Z,1.80
2022-11-08T01:52:36.369Z,2.17
2022-11-08T01:55:12.573Z,2.03
2022-11-08T01:57:50.064Z,2.37
2022-11-08T02:00:20.487Z,2.40
2022-11-08T02:02:57.160Z,2.30
2022-11-08T02:05:30.045Z,2.50
2022-11-08T02:08:04.934Z,1.80
2022-11-08T02:10:37.878Z,2.47
2022-11-08T02:13:14.959Z,2.50
2022-11-08T02:15:45.206Z,2.77
2022-11-08T02:18:17.426Z,2.10
2022-11-08T02:21:03.775Z,1.70
2022-11-08T02:23:51.653Z,1.90
2022-11-08T02:26:24.950Z,2.47
2022-11-08T02:28:54.773Z,1.83
2022-11-08T02:31:24.533Z,2.47
2022-11-08T02:33:54.311Z,1.90
2022-11-08T02:36:26.988Z,2.60
2022-11-08T02:39:00.576Z,3.00
2022-11-08T02:41:30.346Z,2.50
2022-11-08T02:44:00.216Z,2.57
2022-11-08T02:46:29.960Z,2.30
2022-11-08T02:48:59.750Z,2.50
2022-11-08T02:51:29.528Z,2.60
2022-11-08T02:54:01.889Z,2.30
2022-11-08T02:56:31.638Z,2.23
2022-11-08T02:59:01.402Z,2.40
2022-11-08T03:01:31.291Z,2.43
2022-11-08T03:04:01.154Z,3.03
2022-11-08T03:06:30.944Z,2.80
2022-11-08T03:09:03.353Z,2.80
2022-11-08T03:11:33.130Z,3.23
2022-11-08T03:14:02.971Z,2.70
2022-11-08T03:16:33.096Z,3.30
2022-11-08T03:19:02.879Z,2.60
2022-11-08T03:21:32.694Z,2.73
2022-11-08T03:24:05.075Z,3.47
2022-11-08T03:26:34.931Z,2.77
2022-11-08T03:29:04.679Z,3.13
2022-11-08T03:31:34.545Z,2.83
2022-11-08T03:34:04.331Z,2.90
2022-11-08T03:36:34.070Z,3.20
2022-11-08T03:39:06.710Z,2.90
2022-11-08T03:41:36.451Z,2.93
2022-11-08T03:44:06.295Z,2.60
2022-11-08T03:46:36.088Z,2.80
2022-11-08T03:49:05.918Z,2.60
2022-11-08T03:51:35.708Z,2.37
2022-11-08T03:54:08.176Z,2.70
2022-11-08T03:56:37.994Z,2.50
2022-11-08T03:59:07.792Z,3.20
2022-11-08T04:01:37.759Z,2.83
2022-11-08T04:04:08.413Z,2.70
2022-11-08T04:06:39.470Z,2.47
2022-11-08T04:09:11.820Z,2.63
2022-11-08T04:11:54.064Z,2.43
2022-11-08T04:14:36.325Z,2.80
2022-11-08T04:17:06.103Z,3.00
2022-11-08T04:19:48.342Z,2.80
2022-11-08T04:22:18.268Z,2.43
2022-11-08T04:24:50.752Z,2.80
2022-11-08T04:27:20.551Z,2.83
2022-11-08T04:29:50.301Z,2.87
2022-11-08T04:32:20.038Z,2.73
2022-11-08T04:34:49.769Z,2.57
2022-11-08T04:37:19.515Z,2.50
2022-11-08T04:39:51.988Z,2.50
2022-11-08T04:42:22.040Z,2.23
2022-11-08T04:44:51.819Z,2.60
2022-11-08T04:47:21.602Z,2.50
2022-11-08T04:49:51.405Z,2.60
2022-11-08T04:52:21.129Z,2.50
2022-11-08T04:54:53.469Z,2.63
2022-11-08T04:57:23.233Z,2.27
2022-11-08T04:59:53.013Z,2.40
2022-11-08T05:02:22.976Z,2.80
2022-11-08T05:04:52.926Z,2.57
2022-11-08T05:07:23.119Z,2.10
2022-11-08T05:09:59.868Z,2.17
2022-11-08T05:12:31.922Z,2.67
2022-11-08T05:15:01.700Z,2.77
2022-11-08T05:17:31.601Z,2.30
2022-11-08T05:20:13.819Z,2.40
2022-11-08T05:22:56.023Z,1.77
2022-11-08T05:25:28.385Z,3.00
2022-11-08T05:27:58.115Z,3.10
2022-11-08T05:30:27.952Z,2.27
2022-11-08T05:32:57.692Z,1.83
2022-11-08T05:35:27.425Z,2.23
2022-11-08T05:37:57.177Z,2.23
2022-11-08T05:40:33.399Z,1.80
2022-11-08T05:43:03.426Z,2.00
2022-11-08T05:45:33.192Z,2.17
2022-11-08T05:48:03.884Z,2.33
2022-11-08T05:50:34.071Z,1.80
2022-11-08T05:53:08.415Z,1.87
2022-11-08T05:55:40.784Z,1.77
2022-11-08T05:58:10.560Z,1.93
2022-11-08T06:00:40.316Z,2.03
2022-11-08T06:03:10.504Z,2.20
2022-11-08T06:05:40.458Z,1.93
2022-11-08T06:08:10.251Z,2.83
2022-11-08T06:10:43.747Z,2.67
2022-11-08T06:13:13.615Z,2.13
2022-11-08T06:15:43.601Z,2.20
2022-11-08T06:18:13.463Z,2.37
2022-11-08T06:20:44.357Z,2.73
2022-11-08T06:23:14.157Z,2.50
2022-11-08T06:25:49.495Z,2.60
2022-11-08T06:28:20.383Z,2.10
2022-11-08T06:30:51.366Z,2.93
2022-11-08T06:33:23.143Z,2.50
2022-11-08T06:35:52.990Z,3.40
2022-11-08T06:38:22.989Z,2.23
2022-11-08T06:40:55.407Z,2.50
2022-11-08T06:43:26.512Z,2.70
2022-11-08T06:45:57.870Z,2.10
2022-11-08T06:48:32.411Z,2.10
2022-11-08T06:51:09.416Z,2.60
2022-11-08T06:53:40.213Z,2.80
2022-11-08T06:56:14.449Z,2.93
2022-11-08T06:58:47.949Z,2.70
2022-11-08T07:01:18.948Z,2.60
2022-11-08T07:03:49.832Z,2.60
2022-11-08T07:06:19.709Z,2.20
2022-11-08T07:08:51.024Z,2.40
2022-11-08T07:11:24.563Z,2.23
2022-11-08T07:13:54.380Z,2.53
2022-11-08T07:16:24.274Z,2.80
2022-11-08T07:18:56.472Z,2.40
2022-11-08T07:21:29.937Z,2.80
2022-11-08T07:23:59.768Z,2.93
2022-11-08T07:26:33.236Z,2.40
2022-11-08T07:29:03.098Z,2.80
2022-11-08T07:31:32.985Z,2.30
2022-11-08T07:34:05.965Z,2.90
2022-11-08T07:36:36.857Z,2.40
2022-11-08T07:39:07.674Z,2.70
2022-11-08T07:41:41.153Z,2.97
2022-11-08T07:44:12.164Z,2.30
2022-11-08T07:46:41.996Z,2.63
2022-11-08T07:49:11.784Z,2.20
2022-11-08T07:51:48.574Z,3.03
2022-11-08T07:54:19.427Z,2.50
2022-11-08T07:57:06.581Z,3.07
2022-11-08T07:59:59.875Z,3.00
2022-11-08T08:02:32.244Z,3.00
2022-11-08T08:05:36.391Z,2.50
2022-11-08T08:08:09.399Z,2.53
2022-11-08T08:11:01.958Z,2.20
2022-11-08T08:13:36.398Z,2.67
2022-11-08T08:16:26.721Z,2.40
2022-11-08T08:19:19.197Z,2.10
2022-11-08T08:22:09.893Z,2.47
2022-11-08T08:24:43.910Z,2.43
2022-11-08T08:27:14.729Z,2.53
2022-11-08T08:29:58.870Z,2.30
2022-11-08T08:32:32.092Z,2.20
2022-11-08T08:35:05.742Z,2.30
2022-11-08T08:37:35.993Z,1.73
2022-11-08T08:40:10.879Z,1.80
2022-11-08T08:42:45.014Z,1.97
2022-11-08T08:45:24.333Z,2.60
2022-11-08T08:48:17.139Z,2.37
2022-11-08T08:51:09.268Z,1.97
2022-11-08T08:53:45.212Z,1.93
2022-11-08T08:56:29.384Z,1.87
2022-11-08T09:02:04.016Z,2.13
2022-11-08T09:04:35.900Z,1.53
2022-11-08T09:07:07.995Z,2.03
2022-11-08T09:09:44.850Z,2.20
2022-11-08T09:12:15.711Z,1.67
2022-11-08T09:14:45.490Z,1.80
2022-11-08T09:17:17.923Z,1.77
2022-11-08T09:19:53.052Z,2.20
2022-11-08T09:22:27.886Z,1.90
2022-11-08T09:25:01.051Z,1.80
2022-11-08T09:27:34.925Z,1.50
2022-11-08T09:30:04.944Z,1.87
2022-11-08T09:32:59.683Z,1.87
2022-11-08T09:35:27.329Z,1.63
2022-11-08T09:37:57.920Z,1.57
2022-11-08T09:40:34.142Z,1.97
2022-11-08T09:43:23.900Z,1.40
2022-11-08T09:45:56.129Z,1.57
2022-11-08T09:48:32.531Z,1.37
2022-11-08T09:51:09.086Z,1.87
2022-11-08T09:53:50.394Z,2.00
2022-11-08T09:56:27.916Z,1.67
2022-11-08T09:59:02.344Z,1.97
2022-11-08T10:01:34.516Z,1.40
2022-11-08T10:04:13.036Z,1.53
2022-11-08T10:07:01.028Z,1.97
2022-11-08T10:09:47.007Z,1.67
2022-11-08T10:12:22.480Z,2.07
2022-11-08T10:15:06.657Z,1.70
2022-11-08T10:18:00.329Z,1.80
2022-11-08T10:20:41.836Z,1.67
2022-11-08T10:23:23.697Z,1.37
2022-11-08T10:25:57.869Z,1.53
2022-11-08T10:28:34.263Z,1.57
2022-11-08T10:31:05.166Z,2.03
2022-11-08T10:33:40.538Z,1.43
2022-11-08T10:36:16.155Z,1.37
2022-11-08T10:38:53.076Z,1.73
2022-11-08T10:41:29.496Z,1.67
2022-11-08T10:44:04.930Z,1.37
2022-11-08T10:46:42.311Z,1.30
2022-11-08T10:49:19.573Z,1.43
2022-11-08T10:51:54.427Z,1.63
2022-11-08T10:54:46.060Z,1.20
2022-11-08T10:57:20.409Z,1.40
2022-11-08T10:59:50.206Z,1.20
2022-11-08T11:02:31.549Z,1.60
2022-11-08T11:05:23.770Z,1.30
2022-11-08T11:08:16.131Z,2.00
2022-11-08T11:10:48.322Z,1.47
2022-11-08T11:13:23.616Z,1.67
2022-11-08T11:15:55.909Z,1.50
2022-11-08T11:18:32.786Z,1.27
2022-11-08T11:21:12.179Z,1.50
2022-11-08T11:23:48.173Z,2.00
2022-11-08T11:26:32.040Z,1.77
2022-11-08T11:29:17.137Z,1.50
2022-11-08T11:31:49.575Z,1.30
2022-11-08T11:34:46.923Z,1.90
2022-11-08T11:37:30.619Z,1.43
2022-11-08T11:40:15.841Z,1.33
2022-11-08T11:42:55.474Z,1.80
2022-11-08T11:45:31.600Z,1.60
2022-11-08T11:48:05.130Z,1.40
2022-11-08T11:50:37.958Z,1.20
2022-11-08T11:53:10.485Z,1.30
2022-11-08T11:55:53.518Z,1.40
2022-11-08T11:58:37.172Z,1.30
2022-11-08T12:01:17.960Z,1.77
2022-11-08T12:04:19.893Z,1.57
2022-11-08T12:07:04.697Z,1.20
2022-11-08T12:09:48.254Z,1.37
2022-11-08T12:12:34.694Z,1.67
2022-11-08T12:15:13.546Z,1.40
2022-11-08T12:18:42.199Z,1.30
2022-11-08T12:21:16.255Z,1.30
2022-11-08T12:24:09.977Z,1.50
2022-11-08T12:26:47.622Z,1.50
2022-11-08T12:29:32.263Z,1.63
2022-11-08T12:32:21.752Z,1.30
2022-11-08T12:35:05.982Z,2.50
2022-11-08T12:37:50.446Z,1.40
2022-11-08T12:40:27.664Z,1.30
2022-11-08T12:43:16.009Z,1.13
2022-11-08T12:45:59.926Z,1.00
2022-11-08T12:48:51.851Z,1.33
2022-11-08T12:51:28.490Z,1.20
2022-11-08T12:54:18.892Z,1.20
2022-11-08T12:56:53.769Z,1.43
2022-11-08T12:59:26.744Z,1.37
2022-11-08T13:02:01.378Z,1.43
2022-11-08T13:04:41.478Z,1.20
2022-11-08T13:07:22.471Z,1.10
2022-11-08T13:09:59.242Z,1.50
2022-11-08T13:12:43.301Z,1.20
2022-11-08T13:15:20.476Z,1.30
2022-11-08T13:18:38.778Z,1.40
2022-11-08T13:21:38.352Z,1.30
2022-11-08T13:24:45.656Z,1.57
2022-11-08T13:27:35.854Z,1.57
2022-11-08T13:30:28.459Z,1.30
2022-11-08T13:33:07.591Z,1.30
2022-11-08T13:35:51.044Z,1.40
2022-11-08T13:38:33.075Z,1.30
2022-11-08T13:41:17.711Z,1.30
2022-11-08T13:43:50.149Z,1.60
2022-11-08T13:46:51.611Z,1.17
2022-11-08T13:49:24.526Z,1.70
2022-11-08T13:52:31.903Z,2.07
2022-11-08T13:55:04.458Z,1.60
2022-11-08T13:57:59.657Z,1.27
2022-11-08T14:00:46.825Z,1.20
2022-11-08T14:03:47.723Z,1.73
2022-11-08T14:06:26.638Z,1.40
2022-11-08T14:09:06.019Z,1.50
2022-11-08T14:11:48.664Z,1.77
2022-11-08T14:14:46.428Z,1.50
2022-11-08T14:17:45.984Z,1.50
2022-11-08T14:20:35.071Z,1.70
2022-11-08T14:23:18.103Z,1.67
2022-11-08T14:25:50.970Z,1.53
2022-11-08T14:28:29.173Z,1.43
2022-11-08T14:31:01.920Z,1.27
2022-11-08T14:33:33.196Z,1.30
2022-11-08T14:36:05.535Z,1.27
2022-11-08T14:38:39.070Z,1.33
2022-11-08T14:41:10.221Z,5.73
2022-11-08T14:43:46.194Z,2.13
2022-11-08T14:46:23.274Z,1.80
2022-11-08T14:48:56.756Z,1.90
2022-11-08T14:51:29.093Z,1.70
2022-11-08T14:53:59.290Z,1.70
2022-11-08T14:56:31.813Z,2.10
2022-11-08T14:59:08.499Z,1.60
2022-11-08T15:01:39.602Z,1.90
2022-11-08T15:04:16.149Z,1.30
2022-11-08T15:06:49.837Z,1.70
2022-11-08T15:09:24.153Z,1.60
2022-11-08T15:11:58.770Z,1.20
2022-11-08T15:14:36.435Z,1.40
2022-11-08T15:17:07.741Z,1.83
2022-11-08T15:19:42.654Z,1.30
2022-11-08T15:22:28.758Z,1.40
2022-11-08T15:25:05.845Z,1.50
2022-11-08T15:27:38.923Z,2.10
2022-11-08T15:30:18.159Z,1.77
2022-11-08T15:32:49.984Z,1.50
2022-11-08T15:35:26.314Z,1.90
2022-11-08T15:38:02.955Z,1.33
2022-11-08T15:40:36.476Z,1.87
2022-11-08T15:43:06.737Z,2.10
2022-11-08T15:45:40.428Z,2.00
2022-11-08T15:48:22.413Z,1.27
2022-11-08T15:50:53.450Z,1.43
2022-11-08T15:53:24.509Z,1.30
2022-11-08T15:55:57.679Z,1.80
2022-11-08T15:58:30.697Z,1.20
2022-11-08T16:01:06.066Z,1.23
2022-11-08T16:03:36.936Z,1.40
2022-11-08T16:06:08.346Z,1.60
2022-11-08T16:08:40.230Z,1.80
2022-11-08T16:11:16.715Z,1.73
2022-11-08T16:13:49.050Z,1.30
2022-11-08T16:16:24.781Z,1.20
2022-11-08T16:18:55.586Z,1.70
2022-11-08T16:21:26.742Z,1.70
2022-11-08T16:23:57.682Z,1.60
2022-11-08T16:26:29.811Z,1.60
2022-11-08T16:29:01.249Z,1.30
2022-11-08T16:31:39.650Z,1.80
2022-11-08T16:34:12.863Z,1.43
2022-11-08T16:36:46.368Z,1.57
2022-11-08T16:39:19.405Z,1.40
2022-11-08T16:41:50.490Z,1.50
2022-11-08T16:44:20.972Z,1.73
2022-11-08T16:46:55.448Z,1.40
2022-11-08T16:49:27.840Z,1.40
2022-11-08T16:51:58.861Z,1.50
2022-11-08T16:54:31.374Z,1.80
2022-11-08T16:57:28.359Z,1.60
2022-11-08T16:59:52.086Z,1.50
2022-11-08T17:02:32.363Z,1.70
2022-11-08T17:05:03.210Z,1.57
2022-11-08T17:07:33.270Z,1.60
2022-11-08T17:10:04.168Z,1.63
2022-11-08T17:12:35.082Z,1.60
2022-11-08T17:15:06.382Z,1.70
2022-11-08T17:17:40.032Z,1.70
2022-11-08T17:20:13.713Z,1.70
2022-11-08T17:22:47.731Z,1.60
2022-11-08T17:25:19.769Z,2.10
2022-11-08T17:27:51.675Z,1.60
2022-11-08T17:30:26.680Z,1.60
2022-11-08T17:33:00.630Z,2.03
2022-11-08T17:35:31.518Z,1.70
2022-11-08T17:38:02.385Z,1.40
2022-11-08T17:40:33.547Z,1.70
2022-11-08T17:43:04.452Z,1.97
2022-11-08T17:45:35.445Z,1.67
2022-11-08T17:48:09.128Z,1.70
2022-11-08T17:50:39.270Z,1.57
2022-11-08T17:53:10.271Z,2.07
2022-11-08T17:55:40.202Z,2.00
2022-11-08T17:58:11.682Z,1.57
2022-11-08T18:00:41.880Z,1.63
2022-11-08T18:03:15.974Z,1.43
2022-11-08T18:05:55.891Z,1.97
2022-11-08T18:08:28.143Z,1.33
2022-11-08T18:10:58.426Z,1.70
2022-11-08T18:13:30.157Z,1.70
2022-11-08T18:16:09.080Z,1.40
2022-11-08T18:18:43.384Z,1.90
2022-11-08T18:21:13.791Z,1.60
2022-11-08T18:23:44.769Z,2.20
2022-11-08T18:26:15.737Z,1.67
2022-11-08T18:28:52.354Z,1.87
2022-11-08T18:31:24.473Z,1.63
2022-11-08T18:33:59.516Z,1.60
2022-11-08T18:36:32.660Z,1.90
2022-11-08T18:39:04.239Z,1.50
2022-11-08T18:41:36.674Z,1.77
2022-11-08T18:44:08.345Z,1.90
2022-11-08T18:46:43.132Z,2.20
2022-11-08T18:49:16.469Z,1.90
2022-11-08T18:51:52.014Z,1.43
2022-11-08T18:54:23.884Z,2.10
2022-11-08T18:56:53.941Z,2.10
2022-11-08T18:59:24.905Z,2.10
2022-11-08T19:01:57.007Z,1.53
2022-11-08T19:04:29.582Z,2.20
2022-11-08T19:06:59.610Z,1.87
2022-11-08T19:09:30.804Z,1.97
2022-11-08T19:12:05.890Z,1.43
2022-11-08T19:14:38.132Z,2.20
2022-11-08T19:17:10.761Z,1.60
2022-11-08T19:19:44.472Z,1.93
2022-11-08T19:22:15.314Z,1.70
2022-11-08T19:24:46.500Z,1.50
2022-11-08T19:27:17.648Z,1.73
2022-11-08T19:29:48.511Z,1.80
2022-11-08T19:32:21.053Z,1.60
2022-11-08T19:34:54.741Z,1.57
2022-11-08T19:37:25.744Z,1.37
2022-11-08T19:39:55.973Z,1.73
2022-11-08T19:42:26.046Z,1.90
2022-11-08T19:44:55.998Z,1.80
2022-11-08T19:47:27.063Z,1.80
2022-11-08T19:50:01.726Z,1.90
2022-11-08T19:52:32.761Z,1.90
2022-11-08T19:55:02.726Z,1.57
2022-11-08T19:57:35.061Z,1.90
2022-11-08T20:00:07.057Z,1.70
2022-11-08T20:02:42.575Z,1.53
2022-11-08T20:05:16.028Z,1.80
2022-11-08T20:07:47.896Z,1.63
2022-11-08T20:10:17.998Z,1.80
2022-11-08T20:12:49.078Z,1.80
2022-11-08T20:15:19.084Z,1.90
2022-11-08T20:17:49.125Z,1.63
2022-11-08T20:20:22.054Z,1.40
2022-11-08T20:22:52.116Z,1.90
2022-11-08T20:25:23.146Z,1.90
2022-11-08T20:27:52.979Z,1.70
2022-11-08T20:30:22.985Z,1.87
2022-11-08T20:32:52.971Z,1.90
2022-11-08T20:35:27.607Z,1.90
2022-11-08T20:37:59.313Z,2.33
2022-11-08T20:40:30.115Z,2.10
2022-11-08T20:43:01.166Z,1.63
2022-11-08T20:45:31.183Z,2.00
2022-11-08T20:48:02.565Z,1.93
2022-11-08T20:50:39.177Z,1.47
2022-11-08T20:53:11.260Z,2.03
2022-11-08T20:55:41.165Z,1.47
2022-11-08T20:58:13.250Z,1.80
2022-11-08T21:00:57.874Z,2.10
2022-11-08T21:03:31.054Z,1.80
2022-11-08T21:06:06.364Z,2.00
2022-11-08T21:11:30.149Z,1.83
2022-11-08T21:14:00.358Z,1.80
2022-11-08T21:16:35.419Z,1.80
2022-11-08T21:19:13.476Z,2.00
2022-11-08T21:21:47.391Z,2.33
2022-11-08T21:24:18.327Z,1.83
2022-11-08T21:26:49.357Z,1.80
2022-11-08T21:29:20.166Z,1.87
2022-11-08T21:31:50.909Z,1.90
2022-11-08T21:34:21.741Z,2.00
2022-11-08T21:36:55.204Z,1.80
2022-11-08T21:39:26.040Z,2.40
2022-11-08T21:41:57.057Z,1.73
2022-11-08T21:44:27.904Z,2.33
2022-11-08T21:46:58.701Z,1.80
2022-11-08T21:49:29.559Z,2.10
2022-11-08T21:52:03.674Z,2.10
2022-11-08T21:54:34.534Z,1.67
2022-11-08T21:57:04.327Z,2.30
2022-11-08T21:59:35.111Z,2.30
2022-11-08T22:02:05.950Z,2.07
2022-11-08T22:04:36.886Z,1.77
2022-11-08T22:07:10.355Z,2.00
2022-11-08T22:09:40.130Z,2.10
2022-11-08T22:12:11.782Z,1.70
2022-11-08T22:14:42.717Z,2.40
2022-11-08T22:17:13.317Z,1.73
2022-11-08T22:19:44.086Z,1.90
2022-11-08T22:22:17.790Z,1.90
2022-11-08T22:24:48.639Z,2.33
2022-11-08T22:27:18.749Z,2.23
2022-11-08T22:29:49.573Z,1.80
2022-11-08T22:32:19.319Z,2.07
2022-11-08T22:34:49.169Z,2.30
2022-11-08T22:37:21.757Z,1.90
2022-11-08T22:39:51.533Z,1.90
2022-11-08T22:42:21.311Z,2.13
2022-11-08T22:44:51.013Z,2.17
2022-11-08T22:47:20.771Z,2.03
2022-11-08T22:49:50.525Z,2.20
2022-11-08T22:52:22.857Z,2.03
2022-11-08T22:54:52.600Z,2.27
2022-11-08T22:57:22.392Z,2.40
2022-11-08T22:59:52.128Z,2.47
2022-11-08T23:02:21.938Z,1.60
2022-11-08T23:04:51.703Z,1.60
2022-11-08T23:07:24.044Z,1.60
2022-11-08T23:09:53.829Z,1.80
2022-11-08T23:12:36.051Z,1.87
2022-11-08T23:15:18.439Z,1.90
2022-11-08T23:17:48.193Z,1.90
2022-11-08T23:20:31.016Z,1.90
2022-11-08T23:23:16.061Z,2.17
2022-11-08T23:25:46.038Z,1.60
2022-11-08T23:28:28.253Z,1.50
2022-11-08T23:31:10.460Z,1.90
2022-11-08T23:33:45.352Z,2.10
2022-11-08T23:36:15.912Z,2.00
2022-11-08T23:38:48.365Z,2.23
2022-11-08T23:41:30.620Z,2.37
2022-11-08T23:44:12.829Z,1.50
2022-11-08T23:46:42.843Z,2.13
2022-11-08T23:49:12.573Z,2.17
2022-11-08T23:51:42.368Z,1.97
2022-11-08T23:54:14.882Z,2.27
2022-11-08T23:56:44.870Z,2.07
2022-11-08T23:59:15.632Z,2.50
